sensor_id;sensor_type;location;lat;lon;timestamp;temperature;humidity
33988;DHT22;37428;53.580;-1.666;2023-07-31T00:03:34;16.00;99.10
33988;DHT22;37428;53.580;-1.666;2023-07-31T00:06:33;16.00;99.50
33988;DHT22;37428;53.580;-1.666;2023-07-31T00:09:35;16.00;99.90
33988;DHT22;37428;53.580;-1.666;2023-07-31T00:12:52;16.00;99.90
33988;DHT22;37428;53.580;-1.666;2023-07-31T00:16:15;16.00;99.90
33988;DHT22;37428;53.580;-1.666;2023-07-31T00:19:26;16.10;99.90
33988;DHT22;37428;53.580;-1.666;2023-07-31T00:22:42;16.00;99.90
33988;DHT22;37428;53.580;-1.666;2023-07-31T00:25:44;16.10;99.90
33988;DHT22;37428;53.580;-1.666;2023-07-31T00:28:46;16.10;99.90
33988;DHT22;37428;53.580;-1.666;2023-07-31T00:31:48;16.10;99.90
33988;DHT22;37428;53.580;-1.666;2023-07-31T00:34:51;16.10;99.90
33988;DHT22;37428;53.580;-1.666;2023-07-31T00:37:58;16.20;99.90
33988;DHT22;37428;53.580;-1.666;2023-07-31T00:41:00;16.20;99.90
33988;DHT22;37428;53.580;-1.666;2023-07-31T00:44:05;16.20;99.90
33988;DHT22;37428;53.580;-1.666;2023-07-31T00:47:14;16.20;99.90
33988;DHT22;37428;53.580;-1.666;2023-07-31T00:50:16;16.20;99.90
33988;DHT22;37428;53.580;-1.666;2023-07-31T00:53:26;16.30;99.90
33988;DHT22;37428;53.580;-1.666;2023-07-31T00:56:36;16.30;99.90
33988;DHT22;37428;53.580;-1.666;2023-07-31T00:59:59;16.30;99.90
33988;DHT22;37428;53.580;-1.666;2023-07-31T01:03:04;16.40;99.90
33988;DHT22;37428;53.580;-1.666;2023-07-31T01:06:38;16.30;99.90
33988;DHT22;37428;53.580;-1.666;2023-07-31T01:09:47;16.40;99.90
33988;DHT22;37428;53.580;-1.666;2023-07-31T01:12:58;16.40;99.80
33988;DHT22;37428;53.580;-1.666;2023-07-31T01:16:01;16.50;99.90
33988;DHT22;37428;53.580;-1.666;2023-07-31T01:19:03;16.50;99.80
33988;DHT22;37428;53.580;-1.666;2023-07-31T01:22:16;16.50;99.90
33988;DHT22;37428;53.580;-1.666;2023-07-31T01:25:58;16.50;99.90
33988;DHT22;37428;53.580;-1.666;2023-07-31T01:29:06;16.50;99.60
33988;DHT22;37428;53.580;-1.666;2023-07-31T01:32:15;16.50;99.40
33988;DHT22;37428;53.580;-1.666;2023-07-31T01:35:20;16.50;99.50
33988;DHT22;37428;53.580;-1.666;2023-07-31T01:38:36;16.50;99.50
33988;DHT22;37428;53.580;-1.666;2023-07-31T01:41:57;16.50;99.60
33988;DHT22;37428;53.580;-1.666;2023-07-31T01:44:59;16.40;99.60
33988;DHT22;37428;53.580;-1.666;2023-07-31T01:48:02;16.40;99.80
33988;DHT22;37428;53.580;-1.666;2023-07-31T01:51:04;16.40;99.80
33988;DHT22;37428;53.580;-1.666;2023-07-31T01:54:06;16.40;99.90
33988;DHT22;37428;53.580;-1.666;2023-07-31T01:57:09;16.40;99.90
33988;DHT22;37428;53.580;-1.666;2023-07-31T02:00:12;16.40;99.90
33988;DHT22;37428;53.580;-1.666;2023-07-31T02:03:16;16.40;99.90
33988;DHT22;37428;53.580;-1.666;2023-07-31T02:06:24;16.40;99.90
33988;DHT22;37428;53.580;-1.666;2023-07-31T02:09:39;16.40;99.90
33988;DHT22;37428;53.580;-1.666;2023-07-31T02:12:45;16.30;99.90
33988;DHT22;37428;53.580;-1.666;2023-07-31T02:15:48;16.40;99.90
33988;DHT22;37428;53.580;-1.666;2023-07-31T02:18:51;16.30;99.90
33988;DHT22;37428;53.580;-1.666;2023-07-31T02:22:03;16.40;99.90
33988;DHT22;37428;53.580;-1.666;2023-07-31T02:25:06;16.40;99.90
33988;DHT22;37428;53.580;-1.666;2023-07-31T02:28:10;16.40;99.90
33988;DHT22;37428;53.580;-1.666;2023-07-31T02:31:14;16.40;99.90
33988;DHT22;37428;53.580;-1.666;2023-07-31T02:34:19;16.40;99.90
33988;DHT22;37428;53.580;-1.666;2023-07-31T02:37:21;16.40;99.90
33988;DHT22;37428;53.580;-1.666;2023-07-31T02:40:24;16.40;99.90
33988;DHT22;37428;53.580;-1.666;2023-07-31T02:43:29;16.40;99.90
33988;DHT22;37428;53.580;-1.666;2023-07-31T02:46:37;16.40;99.90
33988;DHT22;37428;53.580;-1.666;2023-07-31T02:49:39;16.40;99.90
33988;DHT22;37428;53.580;-1.666;2023-07-31T02:52:42;16.40;99.90
33988;DHT22;37428;53.580;-1.666;2023-07-31T02:55:44;16.40;99.90
33988;DHT22;37428;53.580;-1.666;2023-07-31T02:58:55;16.40;99.90
33988;DHT22;37428;53.580;-1.666;2023-07-31T03:01:58;16.50;99.90
33988;DHT22;37428;53.580;-1.666;2023-07-31T03:05:01;16.50;99.90
33988;DHT22;37428;53.580;-1.666;2023-07-31T03:08:03;16.50;99.90
33988;DHT22;37428;53.580;-1.666;2023-07-31T03:11:07;16.50;99.90
33988;DHT22;37428;53.580;-1.666;2023-07-31T03:14:14;16.50;99.90
33988;DHT22;37428;53.580;-1.666;2023-07-31T03:17:18;16.50;99.90
33988;DHT22;37428;53.580;-1.666;2023-07-31T03:20:20;16.50;99.90
33988;DHT22;37428;53.580;-1.666;2023-07-31T03:23:22;16.50;99.90
33988;DHT22;37428;53.580;-1.666;2023-07-31T03:26:28;16.50;99.90
33988;DHT22;37428;53.580;-1.666;2023-07-31T03:29:32;16.50;99.90
33988;DHT22;37428;53.580;-1.666;2023-07-31T03:32:44;16.50;99.90
33988;DHT22;37428;53.580;-1.666;2023-07-31T03:35:46;16.50;99.90
33988;DHT22;37428;53.580;-1.666;2023-07-31T03:38:48;16.40;99.90
33988;DHT22;37428;53.580;-1.666;2023-07-31T03:41:52;16.40;99.90
33988;DHT22;37428;53.580;-1.666;2023-07-31T03:45:00;16.50;99.90
33988;DHT22;37428;53.580;-1.666;2023-07-31T03:48:28;16.50;99.90
33988;DHT22;37428;53.580;-1.666;2023-07-31T03:51:31;16.50;99.90
33988;DHT22;37428;53.580;-1.666;2023-07-31T03:54:33;16.50;99.90
33988;DHT22;37428;53.580;-1.666;2023-07-31T03:57:35;16.50;99.90
33988;DHT22;37428;53.580;-1.666;2023-07-31T04:00:40;16.50;99.90
33988;DHT22;37428;53.580;-1.666;2023-07-31T04:03:42;16.60;99.90
33988;DHT22;37428;53.580;-1.666;2023-07-31T04:06:45;16.50;99.90
33988;DHT22;37428;53.580;-1.666;2023-07-31T04:09:47;16.50;99.90
33988;DHT22;37428;53.580;-1.666;2023-07-31T04:12:51;16.50;99.90
33988;DHT22;37428;53.580;-1.666;2023-07-31T04:15:55;16.50;99.90
33988;DHT22;37428;53.580;-1.666;2023-07-31T04:19:11;16.50;99.90
33988;DHT22;37428;53.580;-1.666;2023-07-31T04:22:32;16.60;99.90
33988;DHT22;37428;53.580;-1.666;2023-07-31T04:25:37;16.60;99.90
33988;DHT22;37428;53.580;-1.666;2023-07-31T04:28:39;16.60;99.90
33988;DHT22;37428;53.580;-1.666;2023-07-31T04:31:43;16.60;99.90
33988;DHT22;37428;53.580;-1.666;2023-07-31T04:34:45;16.50;99.90
33988;DHT22;37428;53.580;-1.666;2023-07-31T04:37:49;16.50;99.90
33988;DHT22;37428;53.580;-1.666;2023-07-31T04:40:54;16.60;99.80
33988;DHT22;37428;53.580;-1.666;2023-07-31T04:43:56;16.60;99.90
33988;DHT22;37428;53.580;-1.666;2023-07-31T04:47:01;16.60;99.90
33988;DHT22;37428;53.580;-1.666;2023-07-31T04:50:06;16.60;99.90
33988;DHT22;37428;53.580;-1.666;2023-07-31T04:53:09;16.60;99.90
33988;DHT22;37428;53.580;-1.666;2023-07-31T04:56:11;16.60;99.90
33988;DHT22;37428;53.580;-1.666;2023-07-31T04:59:16;16.60;99.90
33988;DHT22;37428;53.580;-1.666;2023-07-31T05:02:20;16.60;99.90
33988;DHT22;37428;53.580;-1.666;2023-07-31T05:05:25;16.60;99.90
33988;DHT22;37428;53.580;-1.666;2023-07-31T05:08:27;16.60;99.90
33988;DHT22;37428;53.580;-1.666;2023-07-31T05:11:35;16.60;99.60
33988;DHT22;37428;53.580;-1.666;2023-07-31T05:14:38;16.60;98.70
33988;DHT22;37428;53.580;-1.666;2023-07-31T05:17:44;16.60;98.30
33988;DHT22;37428;53.580;-1.666;2023-07-31T05:21:02;16.60;98.30
33988;DHT22;37428;53.580;-1.666;2023-07-31T05:24:04;16.60;98.00
33988;DHT22;37428;53.580;-1.666;2023-07-31T05:27:12;16.60;98.60
33988;DHT22;37428;53.580;-1.666;2023-07-31T05:30:33;16.60;99.30
33988;DHT22;37428;53.580;-1.666;2023-07-31T05:33:45;16.60;99.20
33988;DHT22;37428;53.580;-1.666;2023-07-31T05:36:48;16.60;99.10
33988;DHT22;37428;53.580;-1.666;2023-07-31T05:39:50;16.60;99.00
33988;DHT22;37428;53.580;-1.666;2023-07-31T05:42:52;16.60;99.00
33988;DHT22;37428;53.580;-1.666;2023-07-31T05:45:55;16.70;98.80
33988;DHT22;37428;53.580;-1.666;2023-07-31T05:48:58;16.60;98.80
33988;DHT22;37428;53.580;-1.666;2023-07-31T05:52:07;16.70;98.60
33988;DHT22;37428;53.580;-1.666;2023-07-31T05:55:34;16.70;98.60
33988;DHT22;37428;53.580;-1.666;2023-07-31T05:58:36;16.70;98.10
33988;DHT22;37428;53.580;-1.666;2023-07-31T06:01:38;16.70;97.80
33988;DHT22;37428;53.580;-1.666;2023-07-31T06:04:42;16.70;98.30
33988;DHT22;37428;53.580;-1.666;2023-07-31T06:07:44;16.70;98.70
33988;DHT22;37428;53.580;-1.666;2023-07-31T06:10:46;16.70;98.90
33988;DHT22;37428;53.580;-1.666;2023-07-31T06:14:00;16.70;98.90
33988;DHT22;37428;53.580;-1.666;2023-07-31T06:17:05;16.70;99.20
33988;DHT22;37428;53.580;-1.666;2023-07-31T06:20:17;16.70;99.40
33988;DHT22;37428;53.580;-1.666;2023-07-31T06:23:19;16.80;98.90
33988;DHT22;37428;53.580;-1.666;2023-07-31T06:26:22;16.80;99.30
33988;DHT22;37428;53.580;-1.666;2023-07-31T06:29:24;16.90;99.30
33988;DHT22;37428;53.580;-1.666;2023-07-31T06:32:26;16.90;99.30
33988;DHT22;37428;53.580;-1.666;2023-07-31T06:35:32;17.00;99.10
33988;DHT22;37428;53.580;-1.666;2023-07-31T06:38:34;17.00;98.40
33988;DHT22;37428;53.580;-1.666;2023-07-31T06:41:38;17.10;98.40
33988;DHT22;37428;53.580;-1.666;2023-07-31T06:44:42;17.10;98.50
33988;DHT22;37428;53.580;-1.666;2023-07-31T06:47:55;17.10;98.70
33988;DHT22;37428;53.580;-1.666;2023-07-31T06:51:16;17.00;98.60
33988;DHT22;37428;53.580;-1.666;2023-07-31T06:54:18;17.00;98.80
33988;DHT22;37428;53.580;-1.666;2023-07-31T06:57:22;16.90;98.40
33988;DHT22;37428;53.580;-1.666;2023-07-31T07:00:27;16.90;98.80
33988;DHT22;37428;53.580;-1.666;2023-07-31T07:03:32;16.80;98.90
33988;DHT22;37428;53.580;-1.666;2023-07-31T07:06:36;16.70;99.10
33988;DHT22;37428;53.580;-1.666;2023-07-31T07:09:38;16.70;99.70
33988;DHT22;37428;53.580;-1.666;2023-07-31T07:12:40;16.70;99.70
33988;DHT22;37428;53.580;-1.666;2023-07-31T07:15:42;16.70;99.30
33988;DHT22;37428;53.580;-1.666;2023-07-31T07:18:45;16.70;99.40
33988;DHT22;37428;53.580;-1.666;2023-07-31T07:22:03;16.70;99.80
33988;DHT22;37428;53.580;-1.666;2023-07-31T07:25:06;16.80;99.90
33988;DHT22;37428;53.580;-1.666;2023-07-31T07:28:15;16.80;99.90
33988;DHT22;37428;53.580;-1.666;2023-07-31T07:31:19;16.90;99.90
33988;DHT22;37428;53.580;-1.666;2023-07-31T07:34:22;16.80;99.40
33988;DHT22;37428;53.580;-1.666;2023-07-31T07:37:26;16.80;99.10
33988;DHT22;37428;53.580;-1.666;2023-07-31T07:40:30;16.80;99.20
33988;DHT22;37428;53.580;-1.666;2023-07-31T07:43:34;16.80;99.20
33988;DHT22;37428;53.580;-1.666;2023-07-31T07:46:48;16.80;98.30
33988;DHT22;37428;53.580;-1.666;2023-07-31T07:49:52;16.80;97.80
33988;DHT22;37428;53.580;-1.666;2023-07-31T07:52:56;16.80;98.40
33988;DHT22;37428;53.580;-1.666;2023-07-31T07:56:14;16.90;98.80
33988;DHT22;37428;53.580;-1.666;2023-07-31T07:59:17;16.90;98.50
33988;DHT22;37428;53.580;-1.666;2023-07-31T08:02:19;17.00;97.70
33988;DHT22;37428;53.580;-1.666;2023-07-31T08:05:21;17.00;97.30
33988;DHT22;37428;53.580;-1.666;2023-07-31T08:08:25;17.00;97.00
33988;DHT22;37428;53.580;-1.666;2023-07-31T08:11:29;17.00;97.10
33988;DHT22;37428;53.580;-1.666;2023-07-31T08:14:47;16.90;97.20
33988;DHT22;37428;53.580;-1.666;2023-07-31T08:17:52;16.90;97.50
33988;DHT22;37428;53.580;-1.666;2023-07-31T08:21:01;17.00;98.00
33988;DHT22;37428;53.580;-1.666;2023-07-31T08:24:07;17.00;98.30
33988;DHT22;37428;53.580;-1.666;2023-07-31T08:27:13;17.10;97.20
33988;DHT22;37428;53.580;-1.666;2023-07-31T08:30:21;17.00;96.20
33988;DHT22;37428;53.580;-1.666;2023-07-31T08:33:34;17.00;96.60
33988;DHT22;37428;53.580;-1.666;2023-07-31T08:36:41;17.00;97.00
33988;DHT22;37428;53.580;-1.666;2023-07-31T08:39:45;17.00;96.50
33988;DHT22;37428;53.580;-1.666;2023-07-31T08:43:15;17.00;96.30
33988;DHT22;37428;53.580;-1.666;2023-07-31T08:46:18;17.00;95.80
33988;DHT22;37428;53.580;-1.666;2023-07-31T08:49:40;17.00;94.90
33988;DHT22;37428;53.580;-1.666;2023-07-31T08:53:03;17.00;94.70
33988;DHT22;37428;53.580;-1.666;2023-07-31T08:56:10;17.00;94.90
33988;DHT22;37428;53.580;-1.666;2023-07-31T08:59:49;17.00;93.00
33988;DHT22;37428;53.580;-1.666;2023-07-31T09:02:46;17.00;94.00
33988;DHT22;37428;53.580;-1.666;2023-07-31T09:06:04;17.00;93.20
33988;DHT22;37428;53.580;-1.666;2023-07-31T09:09:16;17.00;93.70
33988;DHT22;37428;53.580;-1.666;2023-07-31T09:12:31;17.00;93.00
33988;DHT22;37428;53.580;-1.666;2023-07-31T09:15:42;16.90;92.60
33988;DHT22;37428;53.580;-1.666;2023-07-31T09:18:57;16.90;92.70
33988;DHT22;37428;53.580;-1.666;2023-07-31T09:22:06;16.90;92.20
33988;DHT22;37428;53.580;-1.666;2023-07-31T09:25:23;16.90;92.50
33988;DHT22;37428;53.580;-1.666;2023-07-31T09:28:37;17.00;92.80
33988;DHT22;37428;53.580;-1.666;2023-07-31T09:31:54;17.10;92.30
33988;DHT22;37428;53.580;-1.666;2023-07-31T09:34:58;17.10;92.10
33988;DHT22;37428;53.580;-1.666;2023-07-31T09:38:24;17.10;92.40
33988;DHT22;37428;53.580;-1.666;2023-07-31T09:41:27;17.10;91.90
33988;DHT22;37428;53.580;-1.666;2023-07-31T09:44:50;17.10;92.30
33988;DHT22;37428;53.580;-1.666;2023-07-31T09:47:52;17.10;91.70
33988;DHT22;37428;53.580;-1.666;2023-07-31T09:50:56;17.10;91.90
33988;DHT22;37428;53.580;-1.666;2023-07-31T09:53:58;17.10;92.00
33988;DHT22;37428;53.580;-1.666;2023-07-31T09:57:05;17.10;92.20
33988;DHT22;37428;53.580;-1.666;2023-07-31T10:00:39;17.00;91.90
33988;DHT22;37428;53.580;-1.666;2023-07-31T10:03:59;17.00;92.00
33988;DHT22;37428;53.580;-1.666;2023-07-31T10:07:05;16.90;91.60
33988;DHT22;37428;53.580;-1.666;2023-07-31T10:10:08;16.80;92.10
33988;DHT22;37428;53.580;-1.666;2023-07-31T10:13:11;16.90;92.50
33988;DHT22;37428;53.580;-1.666;2023-07-31T10:16:19;16.80;92.20
33988;DHT22;37428;53.580;-1.666;2023-07-31T10:19:28;16.80;92.60
33988;DHT22;37428;53.580;-1.666;2023-07-31T10:22:45;16.80;92.60
33988;DHT22;37428;53.580;-1.666;2023-07-31T10:25:48;16.80;92.70
33988;DHT22;37428;53.580;-1.666;2023-07-31T10:28:53;16.80;92.40
33988;DHT22;37428;53.580;-1.666;2023-07-31T10:32:16;16.90;92.60
33988;DHT22;37428;53.580;-1.666;2023-07-31T10:35:19;16.90;92.20
33988;DHT22;37428;53.580;-1.666;2023-07-31T10:38:24;16.90;92.50
33988;DHT22;37428;53.580;-1.666;2023-07-31T10:41:55;16.90;91.90
33988;DHT22;37428;53.580;-1.666;2023-07-31T10:45:02;16.90;92.00
33988;DHT22;37428;53.580;-1.666;2023-07-31T10:48:14;16.90;92.80
33988;DHT22;37428;53.580;-1.666;2023-07-31T10:51:47;17.00;92.60
33988;DHT22;37428;53.580;-1.666;2023-07-31T10:55:15;17.00;92.20
33988;DHT22;37428;53.580;-1.666;2023-07-31T10:58:38;17.00;92.10
33988;DHT22;37428;53.580;-1.666;2023-07-31T11:02:04;17.10;91.30
33988;DHT22;37428;53.580;-1.666;2023-07-31T11:05:11;17.10;91.50
33988;DHT22;37428;53.580;-1.666;2023-07-31T11:08:16;17.10;91.60
33988;DHT22;37428;53.580;-1.666;2023-07-31T11:11:19;17.10;91.40
33988;DHT22;37428;53.580;-1.666;2023-07-31T11:14:27;17.00;92.00
33988;DHT22;37428;53.580;-1.666;2023-07-31T11:17:32;17.10;92.20
33988;DHT22;37428;53.580;-1.666;2023-07-31T11:21:01;17.00;91.90
33988;DHT22;37428;53.580;-1.666;2023-07-31T11:24:04;16.90;92.90
33988;DHT22;37428;53.580;-1.666;2023-07-31T11:27:09;16.90;93.30
33988;DHT22;37428;53.580;-1.666;2023-07-31T11:30:12;16.80;93.80
33988;DHT22;37428;53.580;-1.666;2023-07-31T11:33:17;16.70;94.10
33988;DHT22;37428;53.580;-1.666;2023-07-31T11:36:21;16.70;94.10
33988;DHT22;37428;53.580;-1.666;2023-07-31T11:39:29;16.50;93.70
33988;DHT22;37428;53.580;-1.666;2023-07-31T11:42:34;16.50;94.20
33988;DHT22;37428;53.580;-1.666;2023-07-31T11:46:03;16.40;94.50
33988;DHT22;37428;53.580;-1.666;2023-07-31T11:49:13;16.40;94.80
33988;DHT22;37428;53.580;-1.666;2023-07-31T11:52:40;16.40;94.30
33988;DHT22;37428;53.580;-1.666;2023-07-31T11:56:05;16.40;93.90
33988;DHT22;37428;53.580;-1.666;2023-07-31T11:59:08;16.40;93.40
33988;DHT22;37428;53.580;-1.666;2023-07-31T12:02:35;16.40;92.80
33988;DHT22;37428;53.580;-1.666;2023-07-31T12:05:40;16.60;93.00
33988;DHT22;37428;53.580;-1.666;2023-07-31T12:08:46;16.60;92.60
33988;DHT22;37428;53.580;-1.666;2023-07-31T12:11:55;16.70;92.40
33988;DHT22;37428;53.580;-1.666;2023-07-31T12:15:16;16.70;91.70
33988;DHT22;37428;53.580;-1.666;2023-07-31T12:18:35;16.80;92.60
33988;DHT22;37428;53.580;-1.666;2023-07-31T12:21:40;16.90;92.30
33988;DHT22;37428;53.580;-1.666;2023-07-31T12:24:44;17.00;92.90
33988;DHT22;37428;53.580;-1.666;2023-07-31T12:28:17;17.10;91.50
33988;DHT22;37428;53.580;-1.666;2023-07-31T12:31:20;17.10;92.30
33988;DHT22;37428;53.580;-1.666;2023-07-31T12:34:29;17.20;91.50
33988;DHT22;37428;53.580;-1.666;2023-07-31T12:37:34;17.20;91.20
33988;DHT22;37428;53.580;-1.666;2023-07-31T12:40:41;17.10;90.40
33988;DHT22;37428;53.580;-1.666;2023-07-31T12:43:45;16.90;89.40
33988;DHT22;37428;53.580;-1.666;2023-07-31T12:46:47;16.80;90.40
33988;DHT22;37428;53.580;-1.666;2023-07-31T12:49:49;16.80;90.20
33988;DHT22;37428;53.580;-1.666;2023-07-31T12:52:59;16.70;90.60
33988;DHT22;37428;53.580;-1.666;2023-07-31T12:56:13;16.60;90.70
33988;DHT22;37428;53.580;-1.666;2023-07-31T12:59:31;16.50;91.60
33988;DHT22;37428;53.580;-1.666;2023-07-31T13:02:53;16.50;91.80
33988;DHT22;37428;53.580;-1.666;2023-07-31T13:06:02;16.40;91.60
33988;DHT22;37428;53.580;-1.666;2023-07-31T13:09:10;16.30;92.10
33988;DHT22;37428;53.580;-1.666;2023-07-31T13:12:37;16.30;92.50
33988;DHT22;37428;53.580;-1.666;2023-07-31T13:16:00;16.40;92.70
33988;DHT22;37428;53.580;-1.666;2023-07-31T13:19:04;16.40;92.40
33988;DHT22;37428;53.580;-1.666;2023-07-31T13:23:50;16.50;91.60
33988;DHT22;37428;53.580;-1.666;2023-07-31T13:25:40;16.60;91.30
33988;DHT22;37428;53.580;-1.666;2023-07-31T13:29:03;16.60;90.30
33988;DHT22;37428;53.580;-1.666;2023-07-31T13:32:06;16.70;90.30
33988;DHT22;37428;53.580;-1.666;2023-07-31T13:35:16;16.70;90.40
33988;DHT22;37428;53.580;-1.666;2023-07-31T13:38:24;16.70;90.40
33988;DHT22;37428;53.580;-1.666;2023-07-31T13:41:26;16.70;90.60
33988;DHT22;37428;53.580;-1.666;2023-07-31T13:44:31;16.70;90.80
33988;DHT22;37428;53.580;-1.666;2023-07-31T13:47:35;16.70;91.10
33988;DHT22;37428;53.580;-1.666;2023-07-31T13:51:14;16.60;90.00
33988;DHT22;37428;53.580;-1.666;2023-07-31T13:54:07;16.60;90.00
33988;DHT22;37428;53.580;-1.666;2023-07-31T13:57:14;16.60;90.00
33988;DHT22;37428;53.580;-1.666;2023-07-31T14:00:17;16.60;89.70
33988;DHT22;37428;53.580;-1.666;2023-07-31T14:03:20;16.60;89.70
33988;DHT22;37428;53.580;-1.666;2023-07-31T14:06:22;16.70;89.80
33988;DHT22;37428;53.580;-1.666;2023-07-31T14:09:28;16.80;89.40
33988;DHT22;37428;53.580;-1.666;2023-07-31T14:12:30;16.90;88.50
33988;DHT22;37428;53.580;-1.666;2023-07-31T14:15:35;16.90;89.10
33988;DHT22;37428;53.580;-1.666;2023-07-31T14:18:39;16.90;88.40
33988;DHT22;37428;53.580;-1.666;2023-07-31T14:21:41;16.90;87.80
33988;DHT22;37428;53.580;-1.666;2023-07-31T14:24:59;16.90;87.90
33988;DHT22;37428;53.580;-1.666;2023-07-31T14:28:02;16.80;87.90
33988;DHT22;37428;53.580;-1.666;2023-07-31T14:31:09;16.80;88.40
33988;DHT22;37428;53.580;-1.666;2023-07-31T14:34:11;16.80;88.70
33988;DHT22;37428;53.580;-1.666;2023-07-31T14:37:19;16.70;89.00
33988;DHT22;37428;53.580;-1.666;2023-07-31T14:40:30;16.70;89.00
33988;DHT22;37428;53.580;-1.666;2023-07-31T14:43:55;16.80;90.10
33988;DHT22;37428;53.580;-1.666;2023-07-31T14:46:59;16.90;90.10
33988;DHT22;37428;53.580;-1.666;2023-07-31T14:50:01;17.00;90.70
33988;DHT22;37428;53.580;-1.666;2023-07-31T14:53:04;17.00;91.00
33988;DHT22;37428;53.580;-1.666;2023-07-31T14:56:08;17.00;90.10
33988;DHT22;37428;53.580;-1.666;2023-07-31T14:59:30;17.00;91.40
33988;DHT22;37428;53.580;-1.666;2023-07-31T15:02:34;17.00;91.00
33988;DHT22;37428;53.580;-1.666;2023-07-31T15:05:36;16.90;92.20
33988;DHT22;37428;53.580;-1.666;2023-07-31T15:08:52;16.50;89.10
33988;DHT22;37428;53.580;-1.666;2023-07-31T15:12:23;16.40;89.20
33988;DHT22;37428;53.580;-1.666;2023-07-31T15:15:25;16.10;88.80
33988;DHT22;37428;53.580;-1.666;2023-07-31T15:18:31;16.00;90.80
33988;DHT22;37428;53.580;-1.666;2023-07-31T15:21:33;16.00;90.90
33988;DHT22;37428;53.580;-1.666;2023-07-31T15:24:43;15.80;92.40
33988;DHT22;37428;53.580;-1.666;2023-07-31T15:27:51;15.60;91.70
33988;DHT22;37428;53.580;-1.666;2023-07-31T15:30:59;15.50;93.00
33988;DHT22;37428;53.580;-1.666;2023-07-31T15:34:04;15.50;91.70
33988;DHT22;37428;53.580;-1.666;2023-07-31T15:37:08;15.40;92.40
33988;DHT22;37428;53.580;-1.666;2023-07-31T15:40:10;15.50;92.80
33988;DHT22;37428;53.580;-1.666;2023-07-31T15:43:15;15.50;92.60
33988;DHT22;37428;53.580;-1.666;2023-07-31T15:46:19;15.60;92.50
33988;DHT22;37428;53.580;-1.666;2023-07-31T15:49:37;15.60;92.70
33988;DHT22;37428;53.580;-1.666;2023-07-31T15:52:39;15.70;92.20
33988;DHT22;37428;53.580;-1.666;2023-07-31T15:55:41;15.80;92.00
33988;DHT22;37428;53.580;-1.666;2023-07-31T15:58:45;16.00;93.30
33988;DHT22;37428;53.580;-1.666;2023-07-31T16:01:49;16.00;92.20
33988;DHT22;37428;53.580;-1.666;2023-07-31T16:05:18;16.20;92.00
33988;DHT22;37428;53.580;-1.666;2023-07-31T16:08:20;16.20;92.80
33988;DHT22;37428;53.580;-1.666;2023-07-31T16:11:30;16.30;92.50
33988;DHT22;37428;53.580;-1.666;2023-07-31T16:14:56;16.50;91.00
33988;DHT22;37428;53.580;-1.666;2023-07-31T16:18:05;16.50;90.90
33988;DHT22;37428;53.580;-1.666;2023-07-31T16:21:09;16.50;90.50
33988;DHT22;37428;53.580;-1.666;2023-07-31T16:24:11;16.50;89.00
33988;DHT22;37428;53.580;-1.666;2023-07-31T16:27:13;16.40;89.30
33988;DHT22;37428;53.580;-1.666;2023-07-31T16:30:21;16.50;88.60
33988;DHT22;37428;53.580;-1.666;2023-07-31T16:33:35;16.50;89.20
33988;DHT22;37428;53.580;-1.666;2023-07-31T16:36:53;16.50;87.30
33988;DHT22;37428;53.580;-1.666;2023-07-31T16:39:56;16.60;87.30
33988;DHT22;37428;53.580;-1.666;2023-07-31T16:43:12;16.60;87.70
33988;DHT22;37428;53.580;-1.666;2023-07-31T16:46:26;16.70;87.20
33988;DHT22;37428;53.580;-1.666;2023-07-31T16:50:03;16.70;86.10
33988;DHT22;37428;53.580;-1.666;2023-07-31T16:53:02;16.70;85.90
33988;DHT22;37428;53.580;-1.666;2023-07-31T16:56:20;16.60;85.90
33988;DHT22;37428;53.580;-1.666;2023-07-31T16:59:22;16.40;85.90
33988;DHT22;37428;53.580;-1.666;2023-07-31T17:02:26;16.30;86.30
33988;DHT22;37428;53.580;-1.666;2023-07-31T17:05:28;16.50;87.30
33988;DHT22;37428;53.580;-1.666;2023-07-31T17:08:32;16.70;85.60
33988;DHT22;37428;53.580;-1.666;2023-07-31T17:11:35;17.00;85.50
33988;DHT22;37428;53.580;-1.666;2023-07-31T17:14:38;17.10;83.70
33988;DHT22;37428;53.580;-1.666;2023-07-31T17:17:40;17.20;83.30
33988;DHT22;37428;53.580;-1.666;2023-07-31T17:20:50;17.30;83.40
33988;DHT22;37428;53.580;-1.666;2023-07-31T17:24:03;17.10;83.20
33988;DHT22;37428;53.580;-1.666;2023-07-31T17:27:05;16.90;83.40
33988;DHT22;37428;53.580;-1.666;2023-07-31T17:30:10;16.70;83.80
33988;DHT22;37428;53.580;-1.666;2023-07-31T17:33:33;16.60;84.70
33988;DHT22;37428;53.580;-1.666;2023-07-31T17:36:37;16.50;85.40
33988;DHT22;37428;53.580;-1.666;2023-07-31T17:43:34;16.40;87.20
33988;DHT22;37428;53.580;-1.666;2023-07-31T17:46:36;16.40;88.30
33988;DHT22;37428;53.580;-1.666;2023-07-31T17:50:09;16.30;87.70
33988;DHT22;37428;53.580;-1.666;2023-07-31T17:53:03;16.30;86.70
33988;DHT22;37428;53.580;-1.666;2023-07-31T17:59:40;16.10;86.20
33988;DHT22;37428;53.580;-1.666;2023-07-31T18:02:58;16.00;85.90
33988;DHT22;37428;53.580;-1.666;2023-07-31T18:06:00;16.00;85.80
33988;DHT22;37428;53.580;-1.666;2023-07-31T18:10:37;15.90;85.20
33988;DHT22;37428;53.580;-1.666;2023-07-31T18:12:54;15.90;85.60
33988;DHT22;37428;53.580;-1.666;2023-07-31T18:15:58;15.80;86.10
33988;DHT22;37428;53.580;-1.666;2023-07-31T18:19:01;15.70;86.10
33988;DHT22;37428;53.580;-1.666;2023-07-31T18:22:03;15.70;86.30
33988;DHT22;37428;53.580;-1.666;2023-07-31T18:25:08;15.70;86.70
33988;DHT22;37428;53.580;-1.666;2023-07-31T18:28:32;15.70;87.00
33988;DHT22;37428;53.580;-1.666;2023-07-31T18:31:36;15.60;87.90
33988;DHT22;37428;53.580;-1.666;2023-07-31T18:35:22;15.70;87.80
33988;DHT22;37428;53.580;-1.666;2023-07-31T18:38:24;15.60;87.30
33988;DHT22;37428;53.580;-1.666;2023-07-31T18:41:57;15.60;88.50
33988;DHT22;37428;53.580;-1.666;2023-07-31T18:46:54;15.60;88.10
33988;DHT22;37428;53.580;-1.666;2023-07-31T18:48:46;15.60;88.00
33988;DHT22;37428;53.580;-1.666;2023-07-31T18:51:48;15.60;88.00
33988;DHT22;37428;53.580;-1.666;2023-07-31T18:54:51;15.60;88.30
33988;DHT22;37428;53.580;-1.666;2023-07-31T18:57:55;15.60;88.00
33988;DHT22;37428;53.580;-1.666;2023-07-31T19:04:40;15.60;87.70
33988;DHT22;37428;53.580;-1.666;2023-07-31T19:07:43;15.60;87.60
33988;DHT22;37428;53.580;-1.666;2023-07-31T19:11:15;15.60;88.10
33988;DHT22;37428;53.580;-1.666;2023-07-31T19:14:59;15.60;89.90
33988;DHT22;37428;53.580;-1.666;2023-07-31T19:22:16;15.40;91.50
33988;DHT22;37428;53.580;-1.666;2023-07-31T19:25:21;15.30;91.50
33988;DHT22;37428;53.580;-1.666;2023-07-31T19:28:43;15.20;91.60
33988;DHT22;37428;53.580;-1.666;2023-07-31T19:31:49;15.20;92.10
33988;DHT22;37428;53.580;-1.666;2023-07-31T19:35:11;15.10;92.40
33988;DHT22;37428;53.580;-1.666;2023-07-31T19:38:27;15.10;93.10
33988;DHT22;37428;53.580;-1.666;2023-07-31T19:41:30;15.10;93.00
33988;DHT22;37428;53.580;-1.666;2023-07-31T19:44:33;15.10;93.40
33988;DHT22;37428;53.580;-1.666;2023-07-31T19:47:36;15.10;92.90
33988;DHT22;37428;53.580;-1.666;2023-07-31T19:50:40;15.10;93.10